Time;durP1;ratioP1;P1;durP2;ratioP2;P2;SDS_P1;SDS_P2;PMS_P1;PMS_P2;Temp;Humidity;BMP_temperature;BMP_pressure;BME280_temperature;BME280_humidity;BME280_pressure;Samples;Min_cycle;Max_cycle;Signal;HPM_P1;HPM_P2
2023/05/27 00:01:00;;;;;;;8.60;3.00;;;;;;;;;;5041198;28;20230;-85
2023/05/27 00:03:28;;;;;;;9.30;3.93;;;;;;;;;;5036206;28;20215;-86
2023/05/27 00:05:55;;;;;;;9.10;3.13;;;;;;;;;;5032669;28;20222;-85
2023/05/27 00:08:22;;;;;;;5.57;2.67;;;;;;;;;;5033091;28;20214;-85
2023/05/27 00:10:49;;;;;;;9.70;3.43;;;;;;;;;;5043777;28;20261;-85
2023/05/27 00:13:16;;;;;;;11.87;3.13;;;;;;;;;;5040921;28;20211;-86
2023/05/27 00:15:44;;;;;;;7.00;3.40;;;;;;;;;;5050909;28;20241;-86
2023/05/27 00:18:11;;;;;;;7.30;3.30;;;;;;;;;;5043873;28;20202;-86
2023/05/27 00:20:40;;;;;;;6.73;3.23;;;;;;;;;;5048356;28;20510;-86
2023/05/27 00:23:08;;;;;;;9.33;2.80;;;;;;;;;;5039259;28;20210;-85
2023/05/27 00:25:35;;;;;;;10.10;3.00;;;;;;;;;;5043920;28;20230;-86
2023/05/27 00:28:03;;;;;;;7.40;3.20;;;;;;;;;;5040979;28;20420;-86
2023/05/27 00:30:30;;;;;;;10.73;3.20;;;;;;;;;;5040114;28;20600;-86
2023/05/27 00:32:57;;;;;;;7.77;2.97;;;;;;;;;;5044396;28;20259;-85
2023/05/27 00:35:24;;;;;;;7.37;2.90;;;;;;;;;;5044463;28;20236;-86
2023/05/27 00:37:52;;;;;;;10.77;3.10;;;;;;;;;;5036653;28;20226;-86
2023/05/27 00:40:21;;;;;;;5.13;2.87;;;;;;;;;;5040719;28;20234;-85
2023/05/27 00:42:48;;;;;;;9.00;3.47;;;;;;;;;;5043228;28;20207;-86
2023/05/27 00:45:16;;;;;;;8.13;2.93;;;;;;;;;;5043785;28;20228;-86
2023/05/27 00:47:43;;;;;;;4.57;2.80;;;;;;;;;;5042769;28;20272;-85
2023/05/27 00:50:10;;;;;;;7.73;2.93;;;;;;;;;;5049660;28;20226;-86
2023/05/27 00:52:37;;;;;;;6.57;2.63;;;;;;;;;;5049432;28;20690;-86
2023/05/27 00:55:07;;;;;;;7.47;3.40;;;;;;;;;;5037651;28;20696;-86
2023/05/27 00:57:34;;;;;;;6.53;2.57;;;;;;;;;;5048888;28;20234;-85
2023/05/27 01:00:07;;;;;;;8.90;3.87;;;;;;;;;;5053956;28;20233;-86
2023/05/27 01:02:34;;;;;;;10.43;3.50;;;;;;;;;;5056423;28;20242;-85
2023/05/27 01:05:01;;;;;;;4.97;2.87;;;;;;;;;;5045118;28;20245;-85
2023/05/27 01:07:30;;;;;;;7.77;2.70;;;;;;;;;;5049061;28;20222;-86
2023/05/27 01:10:01;;;;;;;7.17;2.83;;;;;;;;;;5042461;28;20230;-86
2023/05/27 01:12:33;;;;;;;11.03;3.50;;;;;;;;;;5056559;28;20210;-86
2023/05/27 01:15:01;;;;;;;8.43;3.33;;;;;;;;;;5047625;28;20617;-87
2023/05/27 01:17:29;;;;;;;8.60;3.23;;;;;;;;;;5048888;28;20234;-86
2023/05/27 01:19:57;;;;;;;6.17;3.00;;;;;;;;;;5043662;28;20234;-86
2023/05/27 01:22:28;;;;;;;8.97;3.03;;;;;;;;;;5045031;28;20211;-86
2023/05/27 01:24:55;;;;;;;10.07;3.40;;;;;;;;;;5051454;28;20233;-86
2023/05/27 01:27:24;;;;;;;10.10;3.23;;;;;;;;;;5044436;28;20619;-86
2023/05/27 01:29:52;;;;;;;8.03;2.93;;;;;;;;;;5052238;28;20298;-87
2023/05/27 01:32:21;;;;;;;7.77;3.50;;;;;;;;;;5042088;28;20684;-86
2023/05/27 01:34:49;;;;;;;5.40;3.00;;;;;;;;;;5052523;28;20210;-86
2023/05/27 01:37:18;;;;;;;8.67;2.97;;;;;;;;;;5044603;28;20230;-85
2023/05/27 01:39:46;;;;;;;8.67;3.20;;;;;;;;;;5035907;28;20209;-85
2023/05/27 01:42:14;;;;;;;7.20;4.53;;;;;;;;;;5041891;28;20202;-87
2023/05/27 01:44:41;;;;;;;7.90;3.60;;;;;;;;;;5045563;28;20229;-87
2023/05/27 01:47:08;;;;;;;7.97;3.20;;;;;;;;;;5048672;28;20254;-87
2023/05/27 01:49:36;;;;;;;11.07;3.40;;;;;;;;;;5041968;28;20215;-87
2023/05/27 01:52:03;;;;;;;7.50;3.53;;;;;;;;;;5044499;28;20230;-86
2023/05/27 01:54:30;;;;;;;7.10;3.30;;;;;;;;;;5051265;28;20214;-86
2023/05/27 01:56:59;;;;;;;8.97;3.47;;;;;;;;;;5052691;28;20238;-86
2023/05/27 01:59:26;;;;;;;7.43;3.10;;;;;;;;;;5045099;28;20207;-86
2023/05/27 02:01:53;;;;;;;6.87;2.87;;;;;;;;;;5035341;28;20257;-86
2023/05/27 02:04:20;;;;;;;9.27;3.40;;;;;;;;;;5038555;28;20203;-87
2023/05/27 02:06:47;;;;;;;10.40;3.27;;;;;;;;;;5046355;28;20641;-86
2023/05/27 02:09:14;;;;;;;10.43;3.23;;;;;;;;;;5047493;28;20202;-87
2023/05/27 02:11:42;;;;;;;9.03;3.20;;;;;;;;;;5038352;28;20237;-87
2023/05/27 02:14:10;;;;;;;7.10;3.10;;;;;;;;;;5039073;28;20203;-86
2023/05/27 02:16:39;;;;;;;6.33;3.20;;;;;;;;;;5048589;28;20245;-86
2023/05/27 02:19:06;;;;;;;6.77;3.50;;;;;;;;;;5045210;28;20274;-87
2023/05/27 02:21:33;;;;;;;8.80;3.07;;;;;;;;;;5046331;28;20234;-87
2023/05/27 02:24:00;;;;;;;8.87;3.40;;;;;;;;;;5045277;28;20214;-87
2023/05/27 02:26:27;;;;;;;9.73;3.17;;;;;;;;;;5068585;23;20231;-92
2023/05/27 02:28:54;;;;;;;6.70;3.20;;;;;;;;;;5060194;28;20632;-90
2023/05/27 02:31:23;;;;;;;11.20;4.03;;;;;;;;;;5049174;28;20575;-90
2023/05/27 02:33:50;;;;;;;8.60;3.60;;;;;;;;;;5058316;28;20206;-90
2023/05/27 02:36:17;;;;;;;4.57;3.27;;;;;;;;;;5057950;28;20275;-91
2023/05/27 02:38:44;;;;;;;12.20;3.30;;;;;;;;;;5069565;28;20212;-91
2023/05/27 02:41:11;;;;;;;9.47;3.30;;;;;;;;;;5060654;28;20218;-91
2023/05/27 02:43:39;;;;;;;9.73;3.77;;;;;;;;;;5063064;28;20197;-91
2023/05/27 02:46:06;;;;;;;6.83;3.80;;;;;;;;;;5074092;28;20229;-91
2023/05/27 02:48:34;;;;;;;7.60;3.70;;;;;;;;;;5051326;28;20201;-91
2023/05/27 02:51:01;;;;;;;7.30;2.90;;;;;;;;;;5059493;28;20218;-90
2023/05/27 02:53:28;;;;;;;5.50;3.53;;;;;;;;;;5059982;28;20206;-89
2023/05/27 02:55:55;;;;;;;6.03;3.07;;;;;;;;;;5063740;28;20233;-89
2023/05/27 02:58:22;;;;;;;6.80;3.27;;;;;;;;;;5064737;28;20230;-90
2023/05/27 03:00:49;;;;;;;8.67;2.97;;;;;;;;;;5057644;28;20225;-90
2023/05/27 03:03:16;;;;;;;10.07;3.23;;;;;;;;;;5060019;28;20207;-90
2023/05/27 03:05:45;;;;;;;4.77;3.23;;;;;;;;;;5058080;28;20242;-90
2023/05/27 03:08:12;;;;;;;9.40;3.33;;;;;;;;;;5058896;28;20229;-91
2023/05/27 03:10:39;;;;;;;10.23;4.03;;;;;;;;;;5058271;28;20232;-90
2023/05/27 03:13:06;;;;;;;4.20;3.27;;;;;;;;;;5058551;28;20210;-90
2023/05/27 03:15:35;;;;;;;12.87;3.60;;;;;;;;;;5058167;28;20264;-90
2023/05/27 03:18:03;;;;;;;7.83;3.73;;;;;;;;;;5057775;28;20653;-91
2023/05/27 03:20:30;;;;;;;9.70;3.43;;;;;;;;;;5062922;28;20225;-90
2023/05/27 03:22:58;;;;;;;10.10;4.13;;;;;;;;;;5056921;28;20206;-91
2023/05/27 03:25:25;;;;;;;12.37;3.70;;;;;;;;;;5052480;28;20221;-91
2023/05/27 03:27:53;;;;;;;6.33;3.43;;;;;;;;;;5062439;28;20236;-90
2023/05/27 03:30:20;;;;;;;5.70;3.20;;;;;;;;;;5057862;28;20230;-90
2023/05/27 03:32:47;;;;;;;9.27;3.70;;;;;;;;;;5059120;28;20212;-90
2023/05/27 03:35:15;;;;;;;6.93;3.47;;;;;;;;;;5055937;28;20233;-90
2023/05/27 03:37:42;;;;;;;6.60;3.57;;;;;;;;;;5056995;28;20247;-90
2023/05/27 03:40:11;;;;;;;6.80;3.80;;;;;;;;;;5058138;28;20237;-90
2023/05/27 03:42:38;;;;;;;12.20;4.27;;;;;;;;;;5062237;28;20209;-89
2023/05/27 03:45:06;;;;;;;7.87;3.50;;;;;;;;;;5058930;28;20232;-90
2023/05/27 03:47:34;;;;;;;11.87;4.40;;;;;;;;;;5058514;28;20230;-90
2023/05/27 03:50:01;;;;;;;7.20;3.67;;;;;;;;;;5055040;28;20236;-89
2023/05/27 03:52:28;;;;;;;10.13;3.67;;;;;;;;;;5059747;28;20214;-89
2023/05/27 03:54:55;;;;;;;9.27;3.70;;;;;;;;;;5056811;28;20233;-90
2023/05/27 03:57:24;;;;;;;8.80;4.23;;;;;;;;;;5056783;28;20226;-90
2023/05/27 03:59:51;;;;;;;8.17;3.67;;;;;;;;;;5059817;28;20233;-90
2023/05/27 04:02:18;;;;;;;8.20;3.30;;;;;;;;;;5059165;28;20198;-90
2023/05/27 04:04:46;;;;;;;7.07;3.27;;;;;;;;;;5063448;28;20220;-89
2023/05/27 04:07:14;;;;;;;7.47;3.77;;;;;;;;;;5053932;28;20233;-90
2023/05/27 04:09:41;;;;;;;9.10;3.70;;;;;;;;;;5051428;28;20659;-89
2023/05/27 04:12:09;;;;;;;8.20;3.40;;;;;;;;;;5049032;28;20225;-91
2023/05/27 04:14:38;;;;;;;10.17;3.67;;;;;;;;;;5056731;28;20201;-90
2023/05/27 04:17:05;;;;;;;8.47;4.00;;;;;;;;;;5059571;28;20541;-90
2023/05/27 04:19:32;;;;;;;5.90;3.50;;;;;;;;;;5057938;28;20686;-90
2023/05/27 04:21:59;;;;;;;9.27;3.73;;;;;;;;;;5057859;28;20210;-90
2023/05/27 04:24:27;;;;;;;8.60;3.90;;;;;;;;;;5055646;28;20233;-90
2023/05/27 04:26:54;;;;;;;9.27;3.30;;;;;;;;;;5061101;28;20590;-90
2023/05/27 04:29:22;;;;;;;12.33;4.17;;;;;;;;;;5055741;28;20206;-90
2023/05/27 04:31:51;;;;;;;9.77;3.37;;;;;;;;;;5055133;28;20233;-90
2023/05/27 04:34:18;;;;;;;7.30;3.73;;;;;;;;;;5055510;28;20217;-90
2023/05/27 04:36:49;;;;;;;12.10;3.77;;;;;;;;;;5059082;28;20247;-90
2023/05/27 04:39:16;;;;;;;9.27;3.60;;;;;;;;;;5056063;28;20213;-90
2023/05/27 04:41:44;;;;;;;9.87;3.97;;;;;;;;;;5047064;28;20229;-90
2023/05/27 04:44:12;;;;;;;12.43;4.13;;;;;;;;;;5056064;28;20209;-90
2023/05/27 04:46:40;;;;;;;8.70;3.80;;;;;;;;;;5055478;28;20214;-90
2023/05/27 04:49:09;;;;;;;7.97;3.83;;;;;;;;;;5047224;28;20210;-89
2023/05/27 04:51:37;;;;;;;8.13;4.07;;;;;;;;;;5058813;28;20233;-87
2023/05/27 04:54:05;;;;;;;10.73;3.70;;;;;;;;;;5060603;28;20240;-90
2023/05/27 04:56:32;;;;;;;9.40;4.07;;;;;;;;;;5055624;28;20226;-90
2023/05/27 04:58:59;;;;;;;8.07;3.87;;;;;;;;;;5054939;28;20206;-90
2023/05/27 05:01:29;;;;;;;11.67;4.00;;;;;;;;;;5061457;28;20614;-90
2023/05/27 05:04:11;;;;;;;8.60;4.50;;;;;;;;;;5057288;28;20240;-90
2023/05/27 05:06:41;;;;;;;7.37;3.80;;;;;;;;;;5050369;28;20233;-90
2023/05/27 05:09:09;;;;;;;10.33;3.67;;;;;;;;;;5046981;28;20206;-90
2023/05/27 05:11:36;;;;;;;9.37;3.47;;;;;;;;;;5051086;28;20237;-89
2023/05/27 05:14:03;;;;;;;8.23;4.17;;;;;;;;;;5057531;28;20213;-90
2023/05/27 05:16:30;;;;;;;8.00;3.57;;;;;;;;;;5054868;28;20233;-90
2023/05/27 05:18:58;;;;;;;7.77;4.00;;;;;;;;;;5047922;28;20645;-90
2023/05/27 05:21:25;;;;;;;9.83;4.20;;;;;;;;;;5056098;28;20457;-90
2023/05/27 05:23:53;;;;;;;8.60;3.97;;;;;;;;;;5055679;28;20198;-91
2023/05/27 05:26:20;;;;;;;9.30;4.00;;;;;;;;;;5048729;28;20729;-90
2023/05/27 05:28:47;;;;;;;9.27;4.20;;;;;;;;;;5057194;28;20652;-92
2023/05/27 05:31:15;;;;;;;8.97;3.63;;;;;;;;;;5056657;28;20230;-92
2023/05/27 05:33:42;;;;;;;11.53;3.87;;;;;;;;;;5057431;28;20296;-91
2023/05/27 05:36:10;;;;;;;10.53;3.87;;;;;;;;;;5054452;28;20912;-89
2023/05/27 05:38:37;;;;;;;9.30;3.93;;;;;;;;;;5055375;28;20252;-90
2023/05/27 05:41:06;;;;;;;7.67;3.77;;;;;;;;;;5055691;28;20711;-90
2023/05/27 05:43:33;;;;;;;8.47;4.20;;;;;;;;;;5067293;28;20210;-90
2023/05/27 05:46:01;;;;;;;10.40;3.60;;;;;;;;;;5059356;28;20225;-91
2023/05/27 05:48:28;;;;;;;11.50;3.70;;;;;;;;;;5060192;28;20253;-90
2023/05/27 05:50:55;;;;;;;11.77;3.80;;;;;;;;;;5056511;28;20230;-90
2023/05/27 05:53:23;;;;;;;10.30;3.90;;;;;;;;;;5058960;28;20662;-91
2023/05/27 05:55:50;;;;;;;11.73;3.47;;;;;;;;;;5059573;28;20237;-91
2023/05/27 05:58:18;;;;;;;8.30;3.57;;;;;;;;;;5058425;28;20241;-94
2023/05/27 06:00:46;;;;;;;11.37;3.70;;;;;;;;;;5062416;28;20292;-92
2023/05/27 06:03:14;;;;;;;8.07;3.50;;;;;;;;;;5059228;28;20207;-93
2023/05/27 06:05:41;;;;;;;9.37;4.03;;;;;;;;;;5057672;28;20316;-88
2023/05/27 06:08:16;;;;;;;8.93;3.60;;;;;;;;;;5066929;28;20289;-91
2023/05/27 06:10:43;;;;;;;9.53;3.43;;;;;;;;;;5058854;28;20236;-89
2023/05/27 06:13:11;;;;;;;11.20;3.50;;;;;;;;;;5057673;28;20210;-90
2023/05/27 06:15:39;;;;;;;10.97;3.47;;;;;;;;;;5059351;28;20276;-88
2023/05/27 06:18:07;;;;;;;10.73;4.13;;;;;;;;;;5059130;28;20234;-92
2023/05/27 06:20:35;;;;;;;9.77;3.33;;;;;;;;;;5059776;28;20229;-93
2023/05/27 06:23:03;;;;;;;9.77;3.13;;;;;;;;;;5058432;28;20294;-91
2023/05/27 06:25:30;;;;;;;7.57;3.03;;;;;;;;;;5048170;28;20230;-92
2023/05/27 06:27:57;;;;;;;8.23;3.00;;;;;;;;;;5056919;28;20576;-95
2023/05/27 06:30:24;;;;;;;10.00;3.30;;;;;;;;;;5061396;28;20759;-90
2023/05/27 06:32:52;;;;;;;8.73;2.97;;;;;;;;;;5060257;28;20209;-91
2023/05/27 06:35:19;;;;;;;10.87;3.40;;;;;;;;;;5043832;28;20237;-90
2023/05/27 06:37:47;;;;;;;8.73;2.93;;;;;;;;;;5046479;28;20231;-90
2023/05/27 06:40:15;;;;;;;10.53;3.30;;;;;;;;;;5060766;28;20611;-92
2023/05/27 06:42:42;;;;;;;9.33;3.03;;;;;;;;;;5060472;28;20727;-90
2023/05/27 06:45:10;;;;;;;7.80;2.87;;;;;;;;;;5059550;28;20249;-91
2023/05/27 06:47:37;;;;;;;5.87;2.93;;;;;;;;;;5066532;28;20217;-92
2023/05/27 06:50:07;;;;;;;5.03;2.87;;;;;;;;;;5070219;28;20233;-91
2023/05/27 06:52:34;;;;;;;7.83;3.00;;;;;;;;;;5046794;28;20199;-91
2023/05/27 06:55:01;;;;;;;9.27;3.13;;;;;;;;;;5055670;28;20226;-88
2023/05/27 06:57:29;;;;;;;6.97;2.90;;;;;;;;;;5057770;28;20236;-91
2023/05/27 06:59:56;;;;;;;11.03;2.80;;;;;;;;;;5064016;28;20230;-91
2023/05/27 07:02:23;;;;;;;12.83;3.30;;;;;;;;;;5039409;28;20206;-90
2023/05/27 07:04:53;;;;;;;7.70;3.23;;;;;;;;;;5061147;28;20239;-91
2023/05/27 07:07:22;;;;;;;7.03;3.03;;;;;;;;;;5051784;28;20226;-89
2023/05/27 07:09:49;;;;;;;9.07;2.77;;;;;;;;;;5059283;28;20242;-92
2023/05/27 07:12:16;;;;;;;10.47;3.13;;;;;;;;;;5051499;28;20210;-92
2023/05/27 07:14:43;;;;;;;7.73;3.10;;;;;;;;;;5059296;28;20863;-89
2023/05/27 07:17:10;;;;;;;8.80;2.90;;;;;;;;;;5060043;28;20234;-92
2023/05/27 07:19:37;;;;;;;10.43;3.00;;;;;;;;;;5051368;28;20203;-93
2023/05/27 07:22:05;;;;;;;5.67;3.10;;;;;;;;;;5049248;28;20213;-93
2023/05/27 07:24:34;;;;;;;9.50;3.43;;;;;;;;;;5067216;28;20206;-92
2023/05/27 07:27:01;;;;;;;6.70;3.17;;;;;;;;;;5059332;28;20600;-93
2023/05/27 07:29:28;;;;;;;12.60;3.20;;;;;;;;;;5059159;28;20229;-92
2023/05/27 07:31:56;;;;;;;5.55;3.10;;;;;;;;;;5046830;28;20225;-91
2023/05/27 07:34:23;;;;;;;10.23;3.40;;;;;;;;;;5050300;28;20271;-91
2023/05/27 07:36:50;;;;;;;8.60;2.80;;;;;;;;;;5057637;28;20309;-90
2023/05/27 07:39:18;;;;;;;7.25;2.75;;;;;;;;;;5057430;28;20256;-91
2023/05/27 07:41:46;;;;;;;8.38;2.65;;;;;;;;;;5058092;28;20216;-91
2023/05/27 07:44:13;;;;;;;6.55;2.70;;;;;;;;;;5055799;28;20210;-90
2023/05/27 07:46:41;;;;;;;9.98;2.63;;;;;;;;;;5042879;28;20234;-90
2023/05/27 07:49:08;;;;;;;7.18;2.65;;;;;;;;;;5048426;28;20208;-90
2023/05/27 07:51:35;;;;;;;7.65;3.65;;;;;;;;;;5056114;28;20225;-89
2023/05/27 07:54:03;;;;;;;9.63;2.90;;;;;;;;;;5056800;28;20649;-90
2023/05/27 07:56:30;;;;;;;10.93;2.85;;;;;;;;;;5043778;28;20238;-89
2023/05/27 07:58:58;;;;;;;5.47;2.78;;;;;;;;;;5053627;28;20241;-90
2023/05/27 08:01:30;;;;;;;7.05;2.70;;;;;;;;;;5058031;28;20238;-90
2023/05/27 08:03:57;;;;;;;9.73;3.35;;;;;;;;;;5057358;28;20198;-89
2023/05/27 08:06:25;;;;;;;6.82;3.08;;;;;;;;;;5056543;28;20237;-90
2023/05/27 08:08:52;;;;;;;7.28;3.20;;;;;;;;;;5056512;28;20202;-90
2023/05/27 08:11:20;;;;;;;8.00;2.72;;;;;;;;;;5053790;28;20226;-91
2023/05/27 08:13:47;;;;;;;5.75;2.65;;;;;;;;;;5052259;28;20245;-92
2023/05/27 08:16:15;;;;;;;8.57;3.33;;;;;;;;;;5057686;28;20288;-90
2023/05/27 08:18:42;;;;;;;7.30;3.05;;;;;;;;;;5066116;28;20240;-91
2023/05/27 08:21:09;;;;;;;7.43;2.75;;;;;;;;;;5057634;28;20582;-92
2023/05/27 08:23:36;;;;;;;7.00;3.08;;;;;;;;;;5058325;28;20202;-91
2023/05/27 08:26:04;;;;;;;9.90;3.20;;;;;;;;;;5040610;28;20226;-92
2023/05/27 08:28:34;;;;;;;7.28;2.88;;;;;;;;;;5051494;28;20233;-92
2023/05/27 08:31:01;;;;;;;6.07;2.75;;;;;;;;;;5060771;28;20236;-93
2023/05/27 08:33:30;;;;;;;8.05;2.97;;;;;;;;;;5059331;28;20224;-90
2023/05/27 08:35:57;;;;;;;6.68;2.92;;;;;;;;;;5055277;28;20293;-89
2023/05/27 08:38:24;;;;;;;6.90;3.00;;;;;;;;;;5051681;28;20234;-87
2023/05/27 08:40:51;;;;;;;5.95;2.78;;;;;;;;;;5051797;28;20662;-84
2023/05/27 08:43:18;;;;;;;6.50;2.90;;;;;;;;;;5048504;28;20206;-85
2023/05/27 08:45:46;;;;;;;9.55;3.28;;;;;;;;;;5044672;28;20238;-84
2023/05/27 08:48:13;;;;;;;15.88;3.63;;;;;;;;;;5050614;28;20228;-83
2023/05/27 08:50:41;;;;;;;6.90;2.72;;;;;;;;;;5045141;28;20234;-84
2023/05/27 08:53:08;;;;;;;6.97;3.20;;;;;;;;;;5047897;28;20217;-83
2023/05/27 08:55:35;;;;;;;7.97;3.13;;;;;;;;;;5050798;28;20730;-83
2023/05/27 08:58:03;;;;;;;5.03;3.10;;;;;;;;;;5049818;28;20700;-84
2023/05/27 09:00:30;;;;;;;4.95;2.72;;;;;;;;;;5049895;28;20233;-83
2023/05/27 09:02:59;;;;;;;5.75;2.90;;;;;;;;;;5050976;28;20221;-84
2023/05/27 09:05:27;;;;;;;7.28;3.03;;;;;;;;;;5048957;28;20603;-83
2023/05/27 09:07:55;;;;;;;4.68;2.88;;;;;;;;;;5050489;28;20233;-82
2023/05/27 09:10:23;;;;;;;4.72;2.50;;;;;;;;;;5049728;28;20230;-84
2023/05/27 09:12:52;;;;;;;6.55;2.92;;;;;;;;;;5050715;28;20209;-84
2023/05/27 09:15:19;;;;;;;7.07;2.65;;;;;;;;;;5049748;28;20233;-82
2023/05/27 09:17:46;;;;;;;6.32;3.10;;;;;;;;;;5053649;28;20742;-88
2023/05/27 09:20:13;;;;;;;9.98;2.90;;;;;;;;;;5047801;28;20237;-87
2023/05/27 09:22:41;;;;;;;8.43;3.30;;;;;;;;;;5048097;28;20209;-86
2023/05/27 09:25:10;;;;;;;4.97;2.30;;;;;;;;;;5048963;28;20731;-91
2023/05/27 09:27:37;;;;;;;6.32;3.38;;;;;;;;;;5056925;28;20242;-88
2023/05/27 09:30:08;;;;;;;10.40;2.70;;;;;;;;;;5057067;28;20236;-88
2023/05/27 09:32:35;;;;;;;8.23;2.72;;;;;;;;;;5058490;28;20206;-88
2023/05/27 09:35:04;;;;;;;8.57;2.97;;;;;;;;;;5056922;28;20226;-90
2023/05/27 09:37:32;;;;;;;7.05;3.05;;;;;;;;;;5049134;28;20225;-87
2023/05/27 09:40:00;;;;;;;5.10;2.65;;;;;;;;;;5055721;28;20230;-87
2023/05/27 09:42:28;;;;;;;6.15;2.30;;;;;;;;;;5055734;28;20604;-86
2023/05/27 09:44:55;;;;;;;6.53;2.63;;;;;;;;;;5047416;28;20236;-87
2023/05/27 09:47:23;;;;;;;6.80;2.92;;;;;;;;;;5050568;28;20229;-86
2023/05/27 09:49:54;;;;;;;8.88;2.67;;;;;;;;;;5052549;28;20233;-90
2023/05/27 09:52:22;;;;;;;6.93;2.80;;;;;;;;;;5049306;28;20202;-88
2023/05/27 09:54:51;;;;;;;5.63;2.88;;;;;;;;;;5046130;28;20229;-85
2023/05/27 09:57:19;;;;;;;3.78;2.65;;;;;;;;;;5053601;28;20234;-83
2023/05/27 09:59:48;;;;;;;5.13;2.40;;;;;;;;;;5054721;28;20240;-86
2023/05/27 10:02:18;;;;;;;5.47;3.20;;;;;;;;;;5054230;28;20213;-87
2023/05/27 10:04:48;;;;;;;6.93;2.83;;;;;;;;;;5053217;28;20225;-87
2023/05/27 10:07:15;;;;;;;7.07;2.70;;;;;;;;;;5054807;28;20232;-86
2023/05/27 10:09:42;;;;;;;4.28;2.80;;;;;;;;;;5047011;28;20214;-84
2023/05/27 10:12:10;;;;;;;6.82;3.30;;;;;;;;;;5062495;28;20206;-84
2023/05/27 10:14:38;;;;;;;6.18;2.60;;;;;;;;;;5055706;28;20208;-88
2023/05/27 10:17:06;;;;;;;5.75;2.88;;;;;;;;;;5056559;28;20308;-90
2023/05/27 10:19:33;;;;;;;6.60;3.08;;;;;;;;;;5056998;28;20313;-86
2023/05/27 10:22:08;;;;;;;7.05;3.70;;;;;;;;;;5056018;28;20206;-83
2023/05/27 10:24:35;;;;;;;6.07;3.60;;;;;;;;;;5055230;28;20193;-84
2023/05/27 10:27:03;;;;;;;7.90;4.75;;;;;;;;;;5040364;28;20233;-86
2023/05/27 10:29:37;;;;;;;9.18;3.80;;;;;;;;;;5047042;28;20210;-90
2023/05/27 10:32:04;;;;;;;14.00;5.65;;;;;;;;;;5056993;28;20531;-87
2023/05/27 10:34:36;;;;;;;6.28;2.92;;;;;;;;;;5046968;28;20206;-86
2023/05/27 10:37:03;;;;;;;7.75;3.35;;;;;;;;;;5047785;28;20257;-86
2023/05/27 10:39:31;;;;;;;6.13;3.88;;;;;;;;;;5054769;28;20226;-86
2023/05/27 10:41:58;;;;;;;9.70;3.97;;;;;;;;;;5056549;28;20206;-88
2023/05/27 10:44:29;;;;;;;7.68;3.63;;;;;;;;;;5058428;28;20289;-87
2023/05/27 10:47:01;;;;;;;8.45;4.60;;;;;;;;;;5048657;28;20226;-89
2023/05/27 10:49:35;;;;;;;8.43;3.63;;;;;;;;;;5036366;28;20202;-88
2023/05/27 10:52:06;;;;;;;5.80;2.63;;;;;;;;;;5053874;28;20265;-82
2023/05/27 10:54:35;;;;;;;9.77;3.08;;;;;;;;;;5054152;28;20238;-86
2023/05/27 10:57:03;;;;;;;7.85;3.45;;;;;;;;;;5053241;28;20303;-84
2023/05/27 10:59:37;;;;;;;5.63;2.90;;;;;;;;;;5040810;28;20222;-85
2023/05/27 11:02:06;;;;;;;7.65;3.00;;;;;;;;;;5049573;28;20208;-85
2023/05/27 11:04:36;;;;;;;6.50;3.22;;;;;;;;;;5053774;28;20206;-88
2023/05/27 11:07:05;;;;;;;6.72;2.67;;;;;;;;;;5054005;28;20225;-87
2023/05/27 11:09:32;;;;;;;6.50;2.95;;;;;;;;;;5058261;28;20214;-85
2023/05/27 11:12:03;;;;;;;9.73;3.10;;;;;;;;;;5048744;28;20206;-86
2023/05/27 11:14:30;;;;;;;7.55;2.85;;;;;;;;;;5051935;28;20719;-86
2023/05/27 11:16:57;;;;;;;5.57;2.92;;;;;;;;;;5045319;28;20230;-86
2023/05/27 11:19:24;;;;;;;7.47;2.95;;;;;;;;;;5053825;28;20225;-86
2023/05/27 11:21:51;;;;;;;6.35;2.97;;;;;;;;;;5040956;28;20230;-88
2023/05/27 11:24:21;;;;;;;7.25;3.05;;;;;;;;;;5041157;28;20213;-90
2023/05/27 11:26:50;;;;;;;4.03;2.40;;;;;;;;;;5059904;28;20885;-87
2023/05/27 11:29:18;;;;;;;7.90;3.53;;;;;;;;;;5045455;28;20291;-87
2023/05/27 11:31:47;;;;;;;7.47;2.80;;;;;;;;;;5043005;28;20230;-86
2023/05/27 11:34:15;;;;;;;5.28;2.78;;;;;;;;;;5051848;28;20576;-86
2023/05/27 11:36:44;;;;;;;5.88;2.92;;;;;;;;;;5053853;28;20659;-86
2023/05/27 11:39:13;;;;;;;6.50;3.05;;;;;;;;;;5052920;28;20226;-85
2023/05/27 11:41:51;;;;;;;8.98;2.92;;;;;;;;;;5052630;28;20233;-85
2023/05/27 11:44:19;;;;;;;6.38;2.80;;;;;;;;;;5051671;28;20201;-86
2023/05/27 11:46:46;;;;;;;6.47;3.47;;;;;;;;;;5051768;28;20229;-87
2023/05/27 11:49:14;;;;;;;6.10;2.92;;;;;;;;;;5053356;28;20194;-85
2023/05/27 11:51:42;;;;;;;6.07;2.95;;;;;;;;;;5052662;28;20236;-87
2023/05/27 11:54:16;;;;;;;5.30;2.78;;;;;;;;;;5054337;28;20195;-84
2023/05/27 11:56:43;;;;;;;6.47;2.80;;;;;;;;;;5054284;28;20230;-85
2023/05/27 11:59:11;;;;;;;8.40;3.50;;;;;;;;;;5053737;28;20230;-86
2023/05/27 12:01:39;;;;;;;6.53;3.03;;;;;;;;;;5053005;28;20715;-85
2023/05/27 12:04:06;;;;;;;5.00;2.97;;;;;;;;;;5052380;28;20209;-84
2023/05/27 12:06:33;;;;;;;10.25;3.13;;;;;;;;;;5051852;28;20234;-87
2023/05/27 12:09:00;;;;;;;4.38;2.53;;;;;;;;;;5054391;28;20205;-86
2023/05/27 12:11:27;;;;;;;5.63;3.20;;;;;;;;;;5053111;28;20306;-85
2023/05/27 12:13:54;;;;;;;6.05;3.15;;;;;;;;;;5053882;28;20216;-84
2023/05/27 12:16:23;;;;;;;7.18;3.25;;;;;;;;;;5053430;28;20222;-86
2023/05/27 12:18:50;;;;;;;7.25;2.90;;;;;;;;;;5054630;28;20229;-86
2023/05/27 12:21:17;;;;;;;8.13;2.67;;;;;;;;;;5045671;28;20313;-85
2023/05/27 12:23:45;;;;;;;6.88;2.90;;;;;;;;;;5053926;28;20210;-86
2023/05/27 12:26:13;;;;;;;7.68;2.78;;;;;;;;;;5053867;28;20586;-85
2023/05/27 12:28:40;;;;;;;5.60;2.40;;;;;;;;;;5054681;28;20215;-86
2023/05/27 12:31:08;;;;;;;5.38;2.85;;;;;;;;;;5045653;28;20226;-88
2023/05/27 12:33:36;;;;;;;4.85;2.60;;;;;;;;;;5045552;28;20667;-86
2023/05/27 12:36:05;;;;;;;4.13;2.63;;;;;;;;;;5053161;28;20236;-81
2023/05/27 12:38:32;;;;;;;5.30;2.90;;;;;;;;;;5053460;28;20251;-85
2023/05/27 12:40:59;;;;;;;7.20;2.83;;;;;;;;;;5053234;28;20577;-85
2023/05/27 12:43:27;;;;;;;5.13;2.97;;;;;;;;;;5045474;28;20594;-85
2023/05/27 12:45:54;;;;;;;7.00;2.60;;;;;;;;;;5053368;28;20228;-85
2023/05/27 12:48:21;;;;;;;4.18;2.58;;;;;;;;;;5054092;28;20237;-84
2023/05/27 12:50:50;;;;;;;6.72;3.22;;;;;;;;;;5041604;28;20282;-85
2023/05/27 12:53:17;;;;;;;8.77;2.65;;;;;;;;;;5054909;28;20231;-85
2023/05/27 12:55:45;;;;;;;4.85;3.25;;;;;;;;;;5056828;28;20226;-84
2023/05/27 12:58:12;;;;;;;6.35;2.90;;;;;;;;;;5056414;28;20261;-82
2023/05/27 13:00:39;;;;;;;8.10;2.65;;;;;;;;;;5055207;28;20226;-85
2023/05/27 13:03:06;;;;;;;5.35;2.90;;;;;;;;;;5056518;28;20202;-84
2023/05/27 13:05:33;;;;;;;5.93;2.70;;;;;;;;;;5048297;28;20652;-85
2023/05/27 13:08:04;;;;;;;4.68;2.63;;;;;;;;;;5057516;28;20225;-85
2023/05/27 13:10:31;;;;;;;6.50;3.25;;;;;;;;;;5057216;28;20253;-83
2023/05/27 13:13:00;;;;;;;7.63;3.08;;;;;;;;;;5057735;28;20206;-83
2023/05/27 13:15:27;;;;;;;9.10;3.33;;;;;;;;;;5056719;28;20320;-85
2023/05/27 13:17:55;;;;;;;5.13;2.53;;;;;;;;;;5057739;28;20229;-85
2023/05/27 13:20:23;;;;;;;4.82;2.60;;;;;;;;;;5056645;28;20328;-84
2023/05/27 13:22:52;;;;;;;6.30;2.72;;;;;;;;;;5057259;28;20202;-85
2023/05/27 13:25:21;;;;;;;4.32;2.60;;;;;;;;;;5056247;28;20238;-85
2023/05/27 13:27:48;;;;;;;6.90;2.72;;;;;;;;;;5056629;28;20238;-85
2023/05/27 13:30:15;;;;;;;4.80;3.00;;;;;;;;;;5055911;28;20226;-84
2023/05/27 13:32:43;;;;;;;5.25;2.50;;;;;;;;;;5056239;28;20208;-84
2023/05/27 13:35:11;;;;;;;8.18;3.05;;;;;;;;;;5056110;28;20723;-84
2023/05/27 13:37:38;;;;;;;6.72;2.67;;;;;;;;;;5056372;28;20265;-85
2023/05/27 13:40:06;;;;;;;4.88;2.67;;;;;;;;;;5056147;28;20236;-85
2023/05/27 13:42:34;;;;;;;4.40;2.60;;;;;;;;;;5056155;28;20240;-85
2023/05/27 13:45:01;;;;;;;4.45;2.60;;;;;;;;;;5056152;28;20609;-84
2023/05/27 13:47:29;;;;;;;5.57;2.72;;;;;;;;;;5055657;28;20222;-84
2023/05/27 13:49:56;;;;;;;5.00;2.97;;;;;;;;;;5050761;28;20243;-84
2023/05/27 13:52:23;;;;;;;4.43;2.50;;;;;;;;;;5052507;28;20206;-84
2023/05/27 13:54:51;;;;;;;5.75;3.05;;;;;;;;;;5038455;28;20237;-82
2023/05/27 13:57:18;;;;;;;6.68;2.80;;;;;;;;;;5053878;28;20250;-82
2023/05/27 13:59:46;;;;;;;5.38;2.70;;;;;;;;;;5045336;28;20228;-83
2023/05/27 14:02:13;;;;;;;4.00;2.80;;;;;;;;;;5055065;28;20344;-85
2023/05/27 14:04:40;;;;;;;6.97;2.63;;;;;;;;;;5055616;28;20206;-85
2023/05/27 14:07:07;;;;;;;5.88;3.15;;;;;;;;;;5055215;28;20221;-82
2023/05/27 14:09:35;;;;;;;4.95;2.83;;;;;;;;;;5054282;28;20206;-82
2023/05/27 14:12:02;;;;;;;4.65;2.42;;;;;;;;;;5055452;28;20818;-84
2023/05/27 14:14:29;;;;;;;6.20;2.72;;;;;;;;;;5054510;28;20206;-85
2023/05/27 14:16:57;;;;;;;6.55;2.60;;;;;;;;;;5055135;28;20228;-85
2023/05/27 14:19:24;;;;;;;4.05;1.95;;;;;;;;;;5054731;28;20252;-84
2023/05/27 14:21:52;;;;;;;5.78;2.58;;;;;;;;;;5055595;28;20221;-84
2023/05/27 14:24:19;;;;;;;3.85;2.53;;;;;;;;;;5038449;28;20206;-86
2023/05/27 14:26:46;;;;;;;5.28;2.35;;;;;;;;;;5043183;28;20234;-84
2023/05/27 14:29:13;;;;;;;5.97;3.15;;;;;;;;;;5050492;28;20202;-85
2023/05/27 14:31:40;;;;;;;4.95;2.90;;;;;;;;;;5063142;28;20930;-85
2023/05/27 14:34:09;;;;;;;4.70;2.60;;;;;;;;;;5048793;28;20545;-86
2023/05/27 14:36:36;;;;;;;6.60;2.60;;;;;;;;;;5052761;28;20237;-85
2023/05/27 14:39:05;;;;;;;6.32;3.10;;;;;;;;;;5055066;28;20292;-85
2023/05/27 14:41:32;;;;;;;6.78;2.97;;;;;;;;;;5046049;28;20238;-85
2023/05/27 14:43:59;;;;;;;4.50;2.10;;;;;;;;;;5059911;28;20201;-86